Time;durP1;ratioP1;P1;durP2;ratioP2;P2;SDS_P1;SDS_P2;PMS_P1;PMS_P2;Temp;Humidity;BMP_temperature;BMP_pressure;BME280_temperature;BME280_humidity;BME280_pressure;Samples;Min_cycle;Max_cycle;Signal;HPM_P1;HPM_P2
2022/02/22 00:02:46;;;;;;;1.88;1.30;;;7.00;99.90;;;;;;4941071;28;20080;-83
2022/02/22 00:08:57;;;;;;;2.97;1.90;;;6.70;99.90;;;;;;5021434;28;20504;-84
2022/02/22 00:11:42;;;;;;;4.45;1.42;;;6.70;99.90;;;;;;5010402;28;20038;-83
2022/02/22 00:14:28;;;;;;;2.58;1.33;;;6.80;99.90;;;;;;5016583;28;20325;-82
2022/02/22 00:17:16;;;;;;;2.67;1.30;;;7.00;99.90;;;;;;5044052;28;20040;-84
2022/02/22 00:19:50;;;;;;;3.33;1.35;;;7.00;99.90;;;;;;5044500;28;20022;-84
2022/02/22 00:22:41;;;;;;;3.08;1.25;;;6.90;99.90;;;;;;5038712;28;20112;-84
2022/02/22 00:25:16;;;;;;;9.82;5.82;;;6.70;99.90;;;;;;5037006;28;20022;-84
2022/02/22 00:28:01;;;;;;;5.40;3.20;;;6.40;99.90;;;;;;5027667;28;20116;-84
2022/02/22 00:31:07;;;;;;;4.80;2.33;;;6.20;99.90;;;;;;5039995;28;20479;-85
2022/02/22 00:33:33;;;;;;;12.57;6.28;;;6.00;99.90;;;;;;5040639;28;20037;-84
2022/02/22 00:36:37;;;;;;;3.78;2.00;;;5.70;99.90;;;;;;5041585;28;20033;-84
2022/02/22 00:39:07;;;;;;;19.58;7.40;;;5.50;99.90;;;;;;5030023;28;20043;-85
2022/02/22 00:41:37;;;;;;;30.05;8.45;;;5.40;99.90;;;;;;5038224;28;20510;-84
2022/02/22 00:44:09;;;;;;;4.97;2.08;;;5.40;99.90;;;;;;5041891;28;20032;-84
2022/02/22 00:52:42;;;;;;;3.67;1.98;;;5.30;99.90;;;;;;5042225;28;20079;-85
2022/02/22 00:55:28;;;;;;;3.17;2.00;;;5.40;99.90;;;;;;5038658;28;20051;-84
2022/02/22 00:57:54;;;;;;;2.88;1.52;;;5.60;99.90;;;;;;5040187;28;20033;-87
2022/02/22 01:00:23;;;;;;;1.75;1.02;;;5.80;99.90;;;;;;5045664;28;20087;-86
2022/02/22 01:02:49;;;;;;;3.33;2.40;;;5.90;99.90;;;;;;5025293;28;20449;-87
2022/02/22 01:05:33;;;;;;;2.00;1.80;;;5.90;99.90;;;;;;5037713;28;20063;-85
2022/02/22 01:08:05;;;;;;;1.80;1.35;;;5.90;99.90;;;;;;5022869;28;20072;-86
2022/02/22 01:10:38;;;;;;;2.15;1.33;;;5.70;99.90;;;;;;5045124;28;20028;-85
2022/02/22 01:13:04;;;;;;;0.95;0.90;;;5.60;99.90;;;;;;5041940;28;20051;-87
2022/02/22 01:15:30;;;;;;;1.80;1.40;;;5.50;99.90;;;;;;5021728;28;20037;-86
2022/02/22 01:17:56;;;;;;;1.52;1.27;;;5.40;99.90;;;;;;5042698;28;20431;-89
2022/02/22 01:21:21;;;;;;;9.98;4.70;;;5.30;99.90;;;;;;5020332;28;20032;-86
2022/02/22 01:24:33;;;;;;;11.15;5.28;;;5.20;99.90;;;;;;4922452;29;20637;-86
2022/02/22 01:27:37;;;;;;;6.75;1.33;;;4.90;99.90;;;;;;4924121;29;20053;-86
2022/02/22 01:33:55;;;;;;;3.22;1.50;;;4.90;99.90;;;;;;5021828;28;20025;-87
2022/02/22 01:36:22;;;;;;;1.67;1.30;;;4.80;99.90;;;;;;5015153;28;20049;-87
2022/02/22 01:38:54;;;;;;;1.42;1.10;;;4.80;99.90;;;;;;5042033;28;20031;-87
2022/02/22 01:41:29;;;;;;;2.17;1.10;;;4.80;99.90;;;;;;5022715;28;20063;-87
2022/02/22 01:43:55;;;;;;;1.92;1.42;;;4.80;99.90;;;;;;5041545;28;20025;-86
2022/02/22 01:46:56;;;;;;;2.20;1.42;;;4.70;99.90;;;;;;5022244;28;20067;-87
2022/02/22 01:49:49;;;;;;;;;;;;;;;;;;;;;
2022/02/22 01:52:29;;;;;;;2.10;1.45;;;5.10;99.90;;;;;;5037463;28;20029;-86
2022/02/22 01:55:03;;;;;;;3.40;1.15;;;5.30;99.90;;;;;;5043578;28;20104;-86
2022/02/22 01:57:40;;;;;;;0.98;0.88;;;5.40;99.90;;;;;;5026085;28;20029;-86
2022/02/22 02:00:19;;;;;;;3.38;1.23;;;5.50;99.90;;;;;;5017954;28;20105;-85
2022/02/22 02:06:44;;;;;;;1.80;1.30;;;5.80;99.90;;;;;;4976256;28;20048;-84
2022/02/22 02:09:49;;;;;;;4.47;1.40;;;5.70;99.90;;;;;;4977591;28;20046;-86
2022/02/22 02:12:45;;;;;;;2.42;1.40;;;5.60;99.90;;;;;;5013518;28;20503;-85
2022/02/22 02:15:14;;;;;;;3.15;1.42;;;5.50;99.90;;;;;;5020387;28;20065;-86
2022/02/22 02:18:07;;;;;;;2.03;1.25;;;5.30;99.90;;;;;;5019405;28;20026;-85
2022/02/22 02:20:55;;;;;;;1.75;1.35;;;5.30;99.90;;;;;;5023770;28;20115;-85
2022/02/22 02:23:52;;;;;;;1.80;1.42;;;5.20;99.90;;;;;;5022132;28;20018;-85
2022/02/22 02:26:50;;;;;;;1.67;1.45;;;5.10;99.90;;;;;;5008164;28;20046;-85
2022/02/22 02:29:45;;;;;;;;;;;;;;;;;;;;;
2022/02/22 02:33:07;;;;;;;2.13;1.35;;;5.10;99.90;;;;;;5021921;28;20038;-84
2022/02/22 02:35:40;;;;;;;1.98;1.20;;;5.10;99.90;;;;;;5010150;28;20069;-84
2022/02/22 02:38:15;;;;;;;2.40;1.37;;;5.10;99.90;;;;;;5024204;28;20018;-84
2022/02/22 02:41:08;;;;;;;3.60;1.40;;;5.20;99.90;;;;;;5022705;28;20029;-84
2022/02/22 02:43:58;;;;;;;1.55;1.30;;;5.10;99.90;;;;;;5009596;28;20034;-84
2022/02/22 02:46:59;;;;;;;2.05;1.35;;;5.10;99.90;;;;;;5022692;28;20025;-84
2022/02/22 02:49:47;;;;;;;;;;;;;;;;;;;;;
2022/02/22 02:52:55;;;;;;;1.52;1.15;;;5.00;99.90;;;;;;5025454;28;20026;-85
2022/02/22 02:55:30;;;;;;;1.80;1.40;;;4.90;99.90;;;;;;5018755;28;20102;-85
2022/02/22 03:02:21;;;;;;;1.33;1.17;;;4.90;99.90;;;;;;5000791;28;20091;-85
2022/02/22 03:05:14;;;;;;;;;;;;;;;;;;;;;
2022/02/22 03:11:30;;;;;;;;;;;;;;;;;;;;;
2022/02/22 03:14:40;;;;;;;2.80;1.35;;;4.40;99.90;;;;;;4964040;28;20057;-85
2022/02/22 03:18:08;;;;;;;;;;;;;;;;;;;;;
2022/02/22 03:21:33;;;;;;;2.22;1.23;;;4.50;99.90;;;;;;4977579;28;20145;-84
2022/02/22 03:24:49;;;;;;;4.13;1.30;;;4.70;99.90;;;;;;4935200;29;20542;-84
2022/02/22 03:27:58;;;;;;;3.47;1.27;;;4.70;99.90;;;;;;4923252;29;20502;-84
2022/02/22 03:33:38;;;;;;;1.83;1.23;;;4.50;99.90;;;;;;4872972;29;20080;-85
2022/02/22 03:36:50;;;;;;;3.97;1.80;;;4.30;99.90;;;;;;4924991;28;20049;-86
2022/02/22 03:39:38;;;;;;;3.40;1.48;;;4.20;99.90;;;;;;4966340;28;20035;-85
2022/02/22 03:42:16;;;;;;;2.97;1.63;;;4.20;99.90;;;;;;5021104;28;20041;-84
2022/02/22 03:44:59;;;;;;;1.35;1.15;;;4.10;99.90;;;;;;5025602;28;20523;-85
2022/02/22 03:47:44;;;;;;;1.95;1.50;;;4.10;99.90;;;;;;5019025;28;20096;-85
2022/02/22 03:50:15;;;;;;;1.13;1.02;;;4.10;99.90;;;;;;5000319;28;20389;-85
2022/02/22 03:53:19;;;;;;;2.20;1.42;;;4.10;99.90;;;;;;5021858;28;20419;-85
2022/02/22 03:56:02;;;;;;;4.25;1.60;;;4.10;99.90;;;;;;4997798;28;20085;-84
2022/02/22 03:58:27;;;;;;;2.70;1.02;;;4.00;99.90;;;;;;5021747;28;20037;-86
2022/02/22 04:01:23;;;;;;;6.00;1.58;;;4.10;99.90;;;;;;5021458;28;20030;-85
2022/02/22 04:03:49;;;;;;;2.55;1.30;;;4.10;99.90;;;;;;5012836;28;20029;-85
2022/02/22 04:06:25;;;;;;;1.95;1.35;;;4.00;99.90;;;;;;5022753;28;20459;-85
2022/02/22 04:09:01;;;;;;;2.38;1.58;;;3.90;99.90;;;;;;5013118;28;20018;-85
2022/02/22 04:11:41;;;;;;;2.20;1.55;;;3.90;99.90;;;;;;5022600;28;20114;-87
2022/02/22 04:14:31;;;;;;;1.73;1.20;;;3.90;99.90;;;;;;5030933;28;20049;-89
2022/02/22 04:17:59;;;;;;;2.97;1.40;;;3.90;99.90;;;;;;5048552;28;20060;-89
2022/02/22 04:20:28;;;;;;;3.20;1.45;;;3.80;99.90;;;;;;5002469;28;20109;-88
2022/02/22 04:23:42;;;;;;;2.05;1.30;;;3.90;99.90;;;;;;5040551;28;20526;-86
2022/02/22 04:25:51;;;;;;;1.73;1.05;;;3.90;99.90;;;;;;5028513;28;20442;-86
2022/02/22 04:28:35;;;;;;;3.50;1.40;;;3.90;99.90;;;;;;5024681;28;20608;-87
2022/02/22 04:31:01;;;;;;;1.80;1.40;;;3.90;99.90;;;;;;5043468;28;20071;-87
2022/02/22 04:34:09;;;;;;;1.67;1.45;;;4.00;99.90;;;;;;5041296;28;20164;-88
2022/02/22 04:36:51;;;;;;;3.20;1.73;;;4.30;99.90;;;;;;5005588;28;20548;-86
2022/02/22 04:39:34;;;;;;;2.53;1.55;;;4.50;99.90;;;;;;5031441;28;20026;-87
2022/02/22 04:42:05;;;;;;;2.17;1.40;;;4.60;99.90;;;;;;5043588;28;20546;-87
2022/02/22 04:44:54;;;;;;;2.33;1.70;;;4.70;99.90;;;;;;5044442;28;20021;-86
2022/02/22 04:47:46;;;;;;;3.28;2.30;;;4.80;99.90;;;;;;5038593;28;20059;-87
2022/02/22 04:53:24;;;;;;;5.38;1.95;;;4.90;99.90;;;;;;5034654;28;20029;-86
2022/02/22 04:55:53;;;;;;;5.53;2.13;;;4.80;99.90;;;;;;5025511;28;20495;-88
2022/02/22 04:58:19;;;;;;;4.95;1.98;;;4.60;99.90;;;;;;5041854;28;20033;-87
2022/02/22 05:00:56;;;;;;;4.50;1.90;;;4.40;99.90;;;;;;5043323;28;20032;-87
2022/02/22 05:03:22;;;;;;;1.80;1.70;;;4.20;99.90;;;;;;5025092;28;20033;-86
2022/02/22 05:05:54;;;;;;;2.42;1.55;;;4.00;99.90;;;;;;5041903;28;20037;-88
2022/02/22 05:08:21;;;;;;;4.18;1.92;;;3.90;99.90;;;;;;5040070;28;20099;-86
2022/02/22 05:10:53;;;;;;;3.10;1.85;;;3.70;99.90;;;;;;5022270;28;20064;-86
2022/02/22 05:13:22;;;;;;;4.18;2.03;;;3.60;99.90;;;;;;5041242;28;20017;-86
2022/02/22 05:15:47;;;;;;;4.95;1.65;;;3.50;99.90;;;;;;5042795;28;20077;-86
2022/02/22 05:18:35;;;;;;;3.33;1.88;;;3.40;99.90;;;;;;5041769;28;20108;-87
2022/02/22 05:21:07;;;;;;;5.20;2.17;;;3.20;99.90;;;;;;5044800;28;20132;-87
2022/02/22 05:23:35;;;;;;;3.80;1.60;;;3.10;99.90;;;;;;5040447;28;20029;-86
2022/02/22 05:26:06;;;;;;;2.75;1.90;;;3.10;99.90;;;;;;5039411;28;20052;-86
2022/02/22 05:28:32;;;;;;;3.97;1.80;;;3.10;99.90;;;;;;5040131;28;20387;-85
2022/02/22 05:30:58;;;;;;;5.07;1.98;;;3.00;99.90;;;;;;5043674;28;20017;-86
2022/02/22 05:33:25;;;;;;;3.80;2.30;;;3.00;99.90;;;;;;5024151;28;20553;-85
2022/02/22 05:35:55;;;;;;;2.53;1.85;;;3.00;99.90;;;;;;5041358;28;20137;-85
2022/02/22 05:38:21;;;;;;;3.67;1.80;;;3.00;99.90;;;;;;5041642;28;20028;-85
2022/02/22 05:40:53;;;;;;;2.20;1.60;;;2.90;99.90;;;;;;5025028;28;20029;-85
2022/02/22 05:43:22;;;;;;;3.65;2.20;;;2.90;99.90;;;;;;5041355;28;20029;-86
2022/02/22 05:45:48;;;;;;;6.15;2.67;;;2.80;99.90;;;;;;5043460;28;20029;-85
2022/02/22 05:48:13;;;;;;;4.13;2.35;;;2.80;99.90;;;;;;5041577;28;20036;-84
2022/02/22 05:50:40;;;;;;;3.88;2.03;;;2.80;99.90;;;;;;5044081;28;20498;-85
2022/02/22 05:53:09;;;;;;;5.43;2.15;;;2.80;99.90;;;;;;5019229;28;20573;-85
2022/02/22 05:55:37;;;;;;;3.78;2.00;;;2.80;99.90;;;;;;5020656;28;20041;-86
2022/02/22 05:58:06;;;;;;;4.45;1.85;;;2.80;99.90;;;;;;5022659;28;20051;-85
2022/02/22 06:00:31;;;;;;;3.45;2.00;;;2.80;99.90;;;;;;5044576;28;20033;-85
2022/02/22 06:02:57;;;;;;;2.50;1.92;;;2.80;99.90;;;;;;5039667;28;20035;-86
2022/02/22 06:05:29;;;;;;;3.45;1.83;;;2.80;99.90;;;;;;5043493;28;20024;-85
2022/02/22 06:07:55;;;;;;;2.38;1.88;;;2.80;99.90;;;;;;5039341;28;20063;-85
2022/02/22 06:10:28;;;;;;;3.08;1.58;;;2.80;99.90;;;;;;5044142;28;20061;-88
2022/02/22 06:12:54;;;;;;;3.42;1.73;;;2.80;99.90;;;;;;5042372;28;20108;-88
2022/02/22 06:15:20;;;;;;;2.00;1.70;;;2.90;99.90;;;;;;5049396;28;20193;-87
2022/02/22 06:17:46;;;;;;;4.47;2.10;;;2.80;99.90;;;;;;5024825;28;20144;-87
2022/02/22 06:20:13;;;;;;;9.50;2.60;;;2.90;99.90;;;;;;5031147;28;20033;-87
2022/02/22 06:22:39;;;;;;;11.88;3.08;;;3.00;99.90;;;;;;5025904;28;20022;-87
2022/02/22 06:25:07;;;;;;;15.52;4.32;;;3.10;99.90;;;;;;5031793;28;20114;-87
2022/02/22 06:27:33;;;;;;;12.32;4.53;;;3.20;99.90;;;;;;5037415;28;20116;-88
2022/02/22 06:29:59;;;;;;;5.40;2.80;;;3.30;99.90;;;;;;5050802;28;20107;-88
2022/02/22 06:32:25;;;;;;;6.45;2.75;;;3.20;99.90;;;;;;5048385;28;20484;-87
2022/02/22 06:34:51;;;;;;;5.28;3.17;;;3.30;99.90;;;;;;5037921;28;20404;-87
2022/02/22 06:37:16;;;;;;;7.90;3.30;;;3.40;99.90;;;;;;5039902;28;20112;-87
2022/02/22 06:39:42;;;;;;;9.25;3.17;;;3.40;99.90;;;;;;5045786;28;20109;-86
2022/02/22 06:42:09;;;;;;;4.72;2.67;;;3.50;99.90;;;;;;5047078;28;20072;-86
2022/02/22 06:44:36;;;;;;;3.28;1.92;;;3.60;99.90;;;;;;5047498;28;20032;-86
2022/02/22 06:47:03;;;;;;;3.20;2.72;;;3.60;99.90;;;;;;5042402;28;20034;-86
2022/02/22 06:49:29;;;;;;;4.15;2.63;;;3.70;99.90;;;;;;5050397;28;20355;-86
2022/02/22 06:51:55;;;;;;;4.03;2.78;;;3.80;99.90;;;;;;5046946;28;20079;-86
2022/02/22 06:54:21;;;;;;;3.97;2.42;;;3.90;99.90;;;;;;5043609;28;20025;-87
2022/02/22 06:56:47;;;;;;;6.43;3.08;;;4.00;99.90;;;;;;5027275;28;20025;-87
2022/02/22 06:59:12;;;;;;;8.30;4.93;;;4.00;99.90;;;;;;5045348;28;20457;-88
2022/02/22 07:01:38;;;;;;;4.47;3.10;;;4.10;99.90;;;;;;5044956;28;20434;-85
2022/02/22 07:04:04;;;;;;;5.45;2.80;;;4.10;99.90;;;;;;5045360;28;20097;-87
2022/02/22 07:06:30;;;;;;;6.55;3.33;;;4.20;99.90;;;;;;5044943;28;20382;-87
2022/02/22 07:08:55;;;;;;;5.68;3.10;;;4.30;99.90;;;;;;5044637;28;20496;-86
2022/02/22 07:11:21;;;;;;;5.20;3.15;;;4.40;99.90;;;;;;5046735;28;20026;-87
2022/02/22 07:13:47;;;;;;;7.30;3.28;;;4.50;99.90;;;;;;5045086;28;20083;-88
2022/02/22 07:16:14;;;;;;;6.72;4.18;;;4.50;99.90;;;;;;5042101;28;20503;-88
2022/02/22 07:18:40;;;;;;;6.88;3.47;;;4.60;99.90;;;;;;5027263;28;20487;-87
2022/02/22 07:21:11;;;;;;;4.25;2.80;;;4.60;99.90;;;;;;5043500;28;20029;-90
2022/02/22 07:23:36;;;;;;;2.40;2.20;;;4.70;99.90;;;;;;5025148;28;20064;-85
2022/02/22 07:26:02;;;;;;;3.10;2.40;;;4.80;99.90;;;;;;5042528;28;20060;-86
2022/02/22 07:28:30;;;;;;;2.92;2.15;;;4.90;99.90;;;;;;5040650;28;20026;-86
2022/02/22 07:31:22;;;;;;;4.80;2.88;;;5.00;99.90;;;;;;5023526;28;20067;-87
2022/02/22 07:34:16;;;;;;;;;;;;;;;;;;;;;
2022/02/22 07:36:40;;;;;;;8.90;3.92;;;5.20;99.90;;;;;;5039641;28;20124;-86
2022/02/22 07:39:09;;;;;;;6.32;3.47;;;5.30;99.90;;;;;;5042497;28;20025;-85
2022/02/22 07:41:43;;;;;;;7.78;4.00;;;5.40;99.90;;;;;;5045035;28;20029;-84
2022/02/22 07:44:09;;;;;;;4.57;3.65;;;5.60;99.90;;;;;;5044043;28;20124;-85
2022/02/22 07:46:45;;;;;;;10.80;3.08;;;5.60;99.90;;;;;;5046453;28;20032;-86
2022/02/22 07:49:11;;;;;;;2.90;2.45;;;5.70;99.90;;;;;;5041724;28;20037;-85
2022/02/22 07:51:39;;;;;;;5.93;2.88;;;5.90;99.90;;;;;;5044542;28;20025;-86
2022/02/22 07:54:08;;;;;;;5.70;2.00;;;6.00;99.90;;;;;;5043460;28;20095;-86
2022/02/22 07:56:37;;;;;;;6.55;2.40;;;6.20;99.90;;;;;;5024409;28;20536;-85
2022/02/22 07:59:41;;;;;;;3.22;1.95;;;6.30;99.90;;;;;;5023266;28;20056;-85
2022/02/22 08:02:27;;;;;;;3.45;2.10;;;6.50;99.90;;;;;;5024009;28;20086;-86
2022/02/22 08:04:53;;;;;;;4.82;3.00;;;6.60;99.90;;;;;;5022248;28;20061;-85
2022/02/22 08:08:00;;;;;;;7.10;2.35;;;6.70;99.90;;;;;;5043653;28;20488;-85
2022/02/22 08:10:40;;;;;;;4.35;1.70;;;6.80;99.90;;;;;;5032065;28;20037;-85
2022/02/22 08:13:11;;;;;;;25.10;9.15;;;6.80;99.90;;;;;;5038980;28;20057;-85
2022/02/22 08:15:40;;;;;;;4.00;2.25;;;6.80;99.90;;;;;;5040359;28;20053;-86
2022/02/22 08:18:09;;;;;;;4.60;2.60;;;7.00;99.90;;;;;;5029440;28;20022;-87
2022/02/22 08:20:35;;;;;;;3.58;2.50;;;7.10;99.90;;;;;;5040665;28;20115;-86
2022/02/22 08:23:00;;;;;;;5.47;2.30;;;7.10;99.90;;;;;;5041609;28;20104;-86
2022/02/22 08:25:39;;;;;;;7.93;2.75;;;7.20;99.90;;;;;;5045877;28;20051;-86
2022/02/22 08:28:10;;;;;;;4.50;2.70;;;7.30;99.90;;;;;;5041928;28;20021;-86
2022/02/22 08:30:38;;;;;;;5.80;2.53;;;7.50;99.90;;;;;;5045925;28;20021;-86
2022/02/22 08:33:06;;;;;;;3.00;1.73;;;7.60;99.90;;;;;;5025294;28;20021;-87
2022/02/22 08:35:32;;;;;;;8.60;1.83;;;7.80;99.90;;;;;;5039437;28;20032;-85
2022/02/22 08:37:58;;;;;;;4.30;2.00;;;7.90;99.90;;;;;;5023961;28;20021;-87
2022/02/22 08:40:24;;;;;;;5.88;1.80;;;7.90;99.90;;;;;;5026878;28;20025;-87
2022/02/22 08:42:50;;;;;;;2.80;2.20;;;8.00;99.90;;;;;;5040573;28;20092;-87
2022/02/22 08:45:16;;;;;;;8.73;3.20;;;8.10;99.90;;;;;;5046020;28;20033;-86
2022/02/22 08:47:45;;;;;;;5.45;2.60;;;8.10;99.90;;;;;;5040560;28;20029;-88
2022/02/22 08:50:36;;;;;;;6.75;2.60;;;8.20;99.90;;;;;;5046795;28;20055;-87
2022/02/22 08:53:12;;;;;;;8.77;3.10;;;8.20;99.90;;;;;;5041255;28;20029;-85
2022/02/22 08:55:41;;;;;;;17.13;3.45;;;8.30;99.90;;;;;;5026966;28;20044;-86
2022/02/22 08:58:07;;;;;;;3.33;2.03;;;8.50;99.90;;;;;;5041576;28;20036;-87
2022/02/22 09:00:36;;;;;;;2.88;1.70;;;8.60;99.90;;;;;;5045139;28;20037;-86
2022/02/22 09:03:05;;;;;;;3.42;1.50;;;8.60;99.90;;;;;;5022887;28;20028;-86
2022/02/22 09:05:36;;;;;;;4.55;1.83;;;8.60;99.90;;;;;;5045391;28;20032;-86
2022/02/22 09:08:01;;;;;;;4.22;1.70;;;8.70;99.90;;;;;;5040404;28;20430;-86
2022/02/22 09:10:27;;;;;;;3.72;1.98;;;8.70;99.90;;;;;;5027516;28;20044;-86
2022/02/22 09:12:57;;;;;;;2.60;1.90;;;8.80;99.90;;;;;;5039922;28;20117;-86
2022/02/22 09:15:31;;;;;;;10.38;2.70;;;8.90;99.90;;;;;;5044576;28;20384;-86
2022/02/22 09:20:47;;;;;;;6.28;2.42;;;9.30;99.90;;;;;;5040127;28;20064;-85
2022/02/22 09:23:30;;;;;;;8.52;2.55;;;9.60;99.90;;;;;;5041190;28;20029;-85
2022/02/22 09:26:19;;;;;;;5.65;2.72;;;9.70;99.90;;;;;;5040866;28;20472;-86
2022/02/22 09:29:22;;;;;;;6.95;2.50;;;9.80;99.90;;;;;;5042262;28;20025;-86
2022/02/22 09:31:49;;;;;;;9.23;4.57;;;9.70;99.90;;;;;;5041289;28;20044;-85
2022/02/22 09:34:17;;;;;;;17.08;4.82;;;9.80;99.90;;;;;;5038995;28;20383;-86
2022/02/22 09:36:43;;;;;;;13.65;4.25;;;9.90;99.90;;;;;;5037226;28;20483;-86
2022/02/22 09:39:09;;;;;;;13.88;3.17;;;9.90;99.90;;;;;;5041948;28;20037;-86
2022/02/22 09:41:37;;;;;;;8.73;3.90;;;9.90;99.90;;;;;;5044341;28;20025;-86
2022/02/22 09:44:15;;;;;;;3.95;1.73;;;10.00;99.90;;;;;;5031438;28;20021;-86
2022/02/22 09:46:47;;;;;;;5.25;2.03;;;10.10;99.90;;;;;;5040861;28;20037;-86
2022/02/22 09:52:10;;;;;;;2.83;1.17;;;10.30;99.90;;;;;;5029553;28;20029;-87
2022/02/22 09:54:41;;;;;;;3.70;1.55;;;10.40;99.90;;;;;;5043482;28;20378;-85
2022/02/22 09:57:12;;;;;;;4.93;1.70;;;10.40;99.90;;;;;;5042541;28;20067;-86
2022/02/22 09:59:42;;;;;;;3.30;1.73;;;10.30;99.90;;;;;;5037464;28;20036;-86
2022/02/22 10:02:10;;;;;;;6.18;1.98;;;10.40;99.90;;;;;;5042744;28;20100;-86
2022/02/22 10:04:47;;;;;;;2.60;1.50;;;10.30;99.90;;;;;;5037280;28;20028;-86
2022/02/22 10:07:14;;;;;;;2.33;1.65;;;10.30;99.90;;;;;;5043141;28;20013;-84
2022/02/22 10:10:02;;;;;;;2.67;1.35;;;10.30;99.90;;;;;;5043808;28;20029;-85
2022/02/22 10:12:35;;;;;;;5.00;1.52;;;10.40;99.90;;;;;;5044467;28;20104;-85
2022/02/22 10:15:01;;;;;;;2.28;1.50;;;10.40;99.90;;;;;;5045808;28;20140;-85
2022/02/22 10:17:36;;;;;;;4.10;1.45;;;10.30;99.90;;;;;;5037110;28;20103;-85
2022/02/22 10:20:28;;;;;;;6.63;1.50;;;10.20;99.90;;;;;;5028242;28;20115;-85
2022/02/22 10:23:06;;;;;;;3.80;1.50;;;10.10;99.90;;;;;;5039222;28;20439;-85
2022/02/22 10:25:36;;;;;;;4.10;1.75;;;10.20;99.90;;;;;;5044423;28;20487;-85
2022/02/22 10:28:04;;;;;;;3.03;1.33;;;10.30;99.90;;;;;;5021501;28;20415;-86
2022/02/22 10:30:54;;;;;;;2.00;1.63;;;10.40;99.90;;;;;;5026333;28;20432;-87
2022/02/22 10:33:45;;;;;;;2.08;1.27;;;10.10;99.90;;;;;;5022905;28;20033;-86
2022/02/22 10:36:24;;;;;;;1.70;1.27;;;9.80;99.90;;;;;;5041714;28;20037;-86
2022/02/22 10:39:15;;;;;;;2.50;1.50;;;9.60;99.90;;;;;;5023155;28;20029;-86
2022/02/22 10:41:48;;;;;;;3.60;1.40;;;9.50;99.90;;;;;;5037676;28;20408;-86
2022/02/22 10:44:33;;;;;;;2.55;1.50;;;9.50;99.90;;;;;;5039270;28;20021;-86
2022/02/22 10:47:00;;;;;;;2.15;1.58;;;9.60;99.90;;;;;;5024020;28;20029;-85
2022/02/22 10:49:35;;;;;;;3.65;1.73;;;9.60;99.90;;;;;;5042687;28;20017;-86
2022/02/22 10:52:11;;;;;;;4.50;1.77;;;9.80;99.90;;;;;;5020841;28;20025;-85
2022/02/22 10:54:53;;;;;;;2.03;1.50;;;10.10;99.90;;;;;;5018445;28;20037;-85
2022/02/22 10:57:33;;;;;;;7.15;1.85;;;10.10;99.90;;;;;;5037765;28;20494;-86
2022/02/22 11:00:11;;;;;;;3.42;1.60;;;10.10;99.90;;;;;;5028409;28;20468;-86
2022/02/22 11:03:27;;;;;;;3.90;1.55;;;10.10;99.90;;;;;;5022514;28;20033;-86
2022/02/22 11:05:35;;;;;;;3.38;1.52;;;10.00;99.90;;;;;;5033718;28;20522;-85
2022/02/22 11:08:39;;;;;;;3.17;1.83;;;9.70;99.90;;;;;;5044223;28;20120;-86
2022/02/22 11:11:10;;;;;;;2.78;1.17;;;9.70;99.90;;;;;;4981741;28;20029;-86
2022/02/22 11:13:39;;;;;;;1.48;1.30;;;9.70;99.90;;;;;;5042674;28;20734;-86
2022/02/22 11:16:34;;;;;;;2.67;1.30;;;9.80;99.90;;;;;;5026380;28;20050;-86
2022/02/22 11:19:00;;;;;;;4.15;1.20;;;9.80;99.90;;;;;;5034706;28;20104;-86
2022/02/22 11:21:34;;;;;;;1.80;1.58;;;10.00;99.90;;;;;;5028621;28;20124;-84
2022/02/22 11:24:12;;;;;;;5.03;1.67;;;10.00;99.90;;;;;;5022374;28;20052;-84
2022/02/22 11:27:07;;;;;;;2.03;1.70;;;10.00;99.90;;;;;;5040483;28;20112;-85
2022/02/22 11:29:34;;;;;;;4.47;1.63;;;10.10;99.90;;;;;;5027344;28;20037;-84
2022/02/22 11:32:06;;;;;;;3.08;1.73;;;10.30;99.90;;;;;;5044902;28;20101;-85
2022/02/22 11:34:35;;;;;;;4.53;1.60;;;10.50;99.90;;;;;;5047695;28;20399;-85
2022/02/22 11:37:09;;;;;;;2.55;1.23;;;10.70;99.90;;;;;;5047557;28;20056;-85
2022/02/22 11:40:27;;;;;;;2.63;1.63;;;10.80;99.90;;;;;;5027371;28;20168;-85
2022/02/22 11:43:15;;;;;;;4.10;1.55;;;11.00;99.90;;;;;;5039782;28;20068;-85
2022/02/22 11:46:12;;;;;;;2.15;1.70;;;11.20;99.90;;;;;;5041512;28;20104;-85
2022/02/22 11:48:39;;;;;;;6.10;2.17;;;11.30;99.90;;;;;;5041903;28;20098;-84
2022/02/22 11:51:14;;;;;;;3.85;2.45;;;11.40;99.90;;;;;;5041563;28;20025;-85
2022/02/22 11:53:47;;;;;;;3.40;2.20;;;11.60;99.90;;;;;;5036330;28;20108;-85
2022/02/22 11:56:46;;;;;;;3.47;1.83;;;11.80;99.90;;;;;;5044734;28;20067;-84
2022/02/22 11:59:23;;;;;;;1.85;1.42;;;11.90;99.90;;;;;;5042892;28;20040;-86
2022/02/22 12:02:14;;;;;;;;;;;;;;;;;;;;;
2022/02/22 12:04:55;;;;;;;2.67;1.42;;;12.40;99.90;;;;;;5045500;28;20033;-86
2022/02/22 12:08:08;;;;;;;2.58;1.42;;;12.50;99.90;;;;;;5039312;28;20022;-86
2022/02/22 12:10:45;;;;;;;22.42;6.28;;;12.50;99.90;;;;;;5043843;28;20066;-85
2022/02/22 12:13:44;;;;;;;44.72;11.50;;;12.90;99.90;;;;;;5031067;28;20057;-86
2022/02/22 12:16:26;;;;;;;6.72;1.80;;;13.20;99.90;;;;;;5043491;28;20053;-86
2022/02/22 12:18:55;;;;;;;3.28;1.55;;;13.30;99.90;;;;;;5025521;28;20032;-88
2022/02/22 12:21:26;;;;;;;10.13;2.28;;;13.30;99.90;;;;;;5027764;28;20030;-87
2022/02/22 12:24:12;;;;;;;8.93;2.10;;;12.70;99.90;;;;;;5021700;28;20025;-90
2022/02/22 12:26:41;;;;;;;6.72;1.50;;;12.60;99.90;;;;;;5030700;28;20496;-87
2022/02/22 12:29:17;;;;;;;2.50;1.33;;;12.30;99.90;;;;;;5064849;28;20174;-88
2022/02/22 12:31:45;;;;;;;1.95;0.80;;;13.10;99.90;;;;;;5045185;28;20028;-85
2022/02/22 12:34:18;;;;;;;1.15;0.98;;;16.10;91.20;;;;;;5025616;28;20021;-86
2022/02/22 12:36:59;;;;;;;6.60;1.38;;;19.30;75.50;;;;;;5027508;28;20037;-85
2022/02/22 12:39:37;;;;;;;2.45;1.00;;;20.80;69.90;;;;;;5046199;28;20025;-85
2022/02/22 12:42:12;;;;;;;1.38;1.00;;;21.70;60.80;;;;;;5027537;28;20036;-84
2022/02/22 12:44:39;;;;;;;8.05;2.53;;;22.80;55.70;;;;;;5038578;28;20025;-88
2022/02/22 12:47:05;;;;;;;7.47;4.05;;;24.40;52.40;;;;;;5041636;28;20684;-88
2022/02/22 12:49:32;;;;;;;14.98;4.28;;;26.70;47.80;;;;;;5040685;28;20100;-89
2022/02/22 12:52:07;;;;;;;0.75;0.70;;;27.90;41.20;;;;;;5020251;28;20029;-86
2022/02/22 12:54:34;;;;;;;6.47;1.10;;;28.10;38.20;;;;;;5027117;28;20029;-85
2022/02/22 12:57:08;;;;;;;1.00;0.60;;;27.70;41.80;;;;;;5045447;28;20029;-86
2022/02/22 12:59:41;;;;;;;2.28;0.70;;;27.60;39.70;;;;;;5028747;28;20475;-88
2022/02/22 13:02:08;;;;;;;1.90;0.82;;;27.30;38.50;;;;;;5026950;28;20026;-87
2022/02/22 13:04:35;;;;;;;7.55;1.23;;;27.20;37.30;;;;;;5043603;28;20013;-87
2022/02/22 13:07:15;;;;;;;0.77;0.75;;;28.00;35.80;;;;;;5026010;28;20028;-86
2022/02/22 13:09:43;;;;;;;1.75;0.90;;;28.90;35.70;;;;;;5020981;28;20048;-88
2022/02/22 13:12:09;;;;;;;0.63;0.40;;;28.60;34.40;;;;;;5038597;28;20025;-90
2022/02/22 13:14:45;;;;;;;1.08;0.60;;;27.40;34.20;;;;;;5046203;28;20057;-89
2022/02/22 13:17:11;;;;;;;6.70;2.35;;;27.20;34.20;;;;;;5021970;28;20067;-88
2022/02/22 13:19:45;;;;;;;1.27;0.50;;;26.40;34.10;;;;;;5019415;28;20029;-87
2022/02/22 13:22:27;;;;;;;0.30;0.22;;;25.80;34.40;;;;;;5030148;28;20013;-88
2022/02/22 13:25:16;;;;;;;1.10;0.60;;;24.70;33.90;;;;;;5016989;28;20033;-88
2022/02/22 13:27:48;;;;;;;1.45;0.95;;;25.00;35.70;;;;;;5039906;28;20033;-87
2022/02/22 13:30:20;;;;;;;1.55;1.00;;;25.00;35.50;;;;;;5026019;28;20395;-88
2022/02/22 13:32:47;;;;;;;0.68;0.50;;;25.90;34.20;;;;;;5042650;28;20040;-88
2022/02/22 13:35:21;;;;;;;0.82;0.57;;;28.00;35.00;;;;;;5027363;28;20045;-86
2022/02/22 13:37:49;;;;;;;1.33;0.40;;;28.90;32.00;;;;;;5026053;28;20615;-87
2022/02/22 13:40:21;;;;;;;0.30;0.30;;;29.30;31.70;;;;;;5037796;28;20037;-86
2022/02/22 13:42:59;;;;;;;2.67;1.52;;;29.90;31.60;;;;;;5044709;28;20025;-87
2022/02/22 13:45:29;;;;;;;2.63;1.38;;;29.70;30.60;;;;;;5023175;28;20033;-87
2022/02/22 13:48:04;;;;;;;5.07;1.75;;;29.60;30.40;;;;;;5024676;28;20029;-88
2022/02/22 13:50:35;;;;;;;1.40;0.60;;;30.50;29.80;;;;;;5046666;28;20037;-87
2022/02/22 13:53:17;;;;;;;1.30;0.73;;;31.70;29.30;;;;;;5022304;28;20537;-86
2022/02/22 13:56:02;;;;;;;0.47;0.43;;;30.30;28.80;;;;;;5023681;28;20095;-88
2022/02/22 13:58:29;;;;;;;3.42;0.52;;;28.80;30.50;;;;;;5026282;28;20025;-88
2022/02/22 14:00:56;;;;;;;2.35;1.10;;;28.40;30.00;;;;;;5047254;28;20017;-87
2022/02/22 14:03:22;;;;;;;0.35;0.30;;;28.60;29.90;;;;;;5042986;28;20112;-86
2022/02/22 14:05:48;;;;;;;0.32;0.20;;;28.40;29.90;;;;;;5023631;28;20185;-87
2022/02/22 14:08:22;;;;;;;1.63;0.73;;;27.90;29.60;;;;;;5026734;28;20365;-87
2022/02/22 14:10:48;;;;;;;1.17;0.70;;;27.50;30.50;;;;;;5024863;28;20037;-85
2022/02/22 14:13:16;;;;;;;0.88;0.77;;;26.70;30.50;;;;;;5023997;28;20059;-86
2022/02/22 14:15:52;;;;;;;1.38;0.80;;;27.30;31.40;;;;;;5025679;28;20053;-87
2022/02/22 14:18:18;;;;;;;0.60;0.40;;;27.30;31.00;;;;;;5024621;28;20079;-87
2022/02/22 14:20:55;;;;;;;0.40;0.40;;;27.70;29.70;;;;;;5023656;28;20034;-86
2022/02/22 14:23:26;;;;;;;0.50;0.45;;;28.30;29.80;;;;;;5023920;28;20496;-86
2022/02/22 14:25:55;;;;;;;1.08;0.50;;;27.00;30.00;;;;;;5025347;28;20027;-86
2022/02/22 14:28:21;;;;;;;1.23;0.80;;;27.00;30.10;;;;;;5040867;28;20025;-85
2022/02/22 14:31:00;;;;;;;1.35;1.00;;;26.90;29.80;;;;;;5042436;28;20017;-85